sensor_id;sensor_type;location;lat;lon;timestamp;P1;durP1;ratioP1;P2;durP2;ratioP2
19985;SDS011;10154;52.474;10.768;2022-08-20T00:06:44;14.73;;;9.88;;
19985;SDS011;10154;52.474;10.768;2022-08-20T00:09:13;16.85;;;10.73;;
19985;SDS011;10154;52.474;10.768;2022-08-20T00:11:39;15.85;;;10.98;;
19985;SDS011;10154;52.474;10.768;2022-08-20T00:14:05;18.98;;;10.93;;
19985;SDS011;10154;52.474;10.768;2022-08-20T00:16:33;17.83;;;10.75;;
19985;SDS011;10154;52.474;10.768;2022-08-20T00:19:03;15.57;;;10.63;;
19985;SDS011;10154;52.474;10.768;2022-08-20T00:21:32;17.60;;;11.77;;
19985;SDS011;10154;52.474;10.768;2022-08-20T00:23:59;15.80;;;11.43;;
19985;SDS011;10154;52.474;10.768;2022-08-20T00:26:26;15.00;;;10.85;;
19985;SDS011;10154;52.474;10.768;2022-08-20T00:28:52;15.23;;;10.27;;
19985;SDS011;10154;52.474;10.768;2022-08-20T00:31:19;15.70;;;10.65;;
19985;SDS011;10154;52.474;10.768;2022-08-20T00:33:48;17.70;;;10.20;;
19985;SDS011;10154;52.474;10.768;2022-08-20T00:36:15;16.73;;;10.65;;
19985;SDS011;10154;52.474;10.768;2022-08-20T00:38:42;16.80;;;11.32;;
19985;SDS011;10154;52.474;10.768;2022-08-20T00:41:14;15.23;;;10.40;;
19985;SDS011;10154;52.474;10.768;2022-08-20T00:46:33;18.15;;;11.05;;
19985;SDS011;10154;52.474;10.768;2022-08-20T00:49:00;18.45;;;11.80;;
19985;SDS011;10154;52.474;10.768;2022-08-20T00:51:43;19.52;;;11.40;;
19985;SDS011;10154;52.474;10.768;2022-08-20T00:57:03;18.73;;;11.20;;
19985;SDS011;10154;52.474;10.768;2022-08-20T00:59:34;16.40;;;11.20;;
19985;SDS011;10154;52.474;10.768;2022-08-20T01:02:06;16.35;;;11.13;;
19985;SDS011;10154;52.474;10.768;2022-08-20T01:04:36;16.83;;;11.35;;
19985;SDS011;10154;52.474;10.768;2022-08-20T01:07:03;15.02;;;10.40;;
19985;SDS011;10154;52.474;10.768;2022-08-20T01:09:32;16.98;;;11.45;;
19985;SDS011;10154;52.474;10.768;2022-08-20T01:12:00;14.05;;;10.15;;
19985;SDS011;10154;52.474;10.768;2022-08-20T01:14:27;15.45;;;10.63;;
19985;SDS011;10154;52.474;10.768;2022-08-20T01:17:00;12.43;;;9.13;;
19985;SDS011;10154;52.474;10.768;2022-08-20T01:19:42;16.45;;;9.93;;
19985;SDS011;10154;52.474;10.768;2022-08-20T01:22:42;17.25;;;11.30;;
19985;SDS011;10154;52.474;10.768;2022-08-20T01:25:47;17.50;;;10.68;;
19985;SDS011;10154;52.474;10.768;2022-08-20T01:28:22;15.43;;;10.48;;
19985;SDS011;10154;52.474;10.768;2022-08-20T01:30:56;15.47;;;10.40;;
19985;SDS011;10154;52.474;10.768;2022-08-20T01:33:23;15.02;;;10.52;;
19985;SDS011;10154;52.474;10.768;2022-08-20T01:35:49;19.80;;;11.70;;
19985;SDS011;10154;52.474;10.768;2022-08-20T01:38:16;17.30;;;11.82;;
19985;SDS011;10154;52.474;10.768;2022-08-20T01:40:52;18.95;;;11.10;;
19985;SDS011;10154;52.474;10.768;2022-08-20T01:43:46;18.05;;;12.43;;
19985;SDS011;10154;52.474;10.768;2022-08-20T01:46:14;18.23;;;12.30;;
19985;SDS011;10154;52.474;10.768;2022-08-20T01:48:42;17.02;;;11.90;;
19985;SDS011;10154;52.474;10.768;2022-08-20T01:51:17;16.63;;;12.52;;
19985;SDS011;10154;52.474;10.768;2022-08-20T01:53:50;18.45;;;12.73;;
19985;SDS011;10154;52.474;10.768;2022-08-20T01:56:21;20.80;;;14.57;;
19985;SDS011;10154;52.474;10.768;2022-08-20T01:58:54;21.80;;;12.57;;
19985;SDS011;10154;52.474;10.768;2022-08-20T02:04:01;16.80;;;11.38;;
19985;SDS011;10154;52.474;10.768;2022-08-20T02:06:30;18.08;;;11.52;;
19985;SDS011;10154;52.474;10.768;2022-08-20T02:09:02;18.23;;;12.45;;
19985;SDS011;10154;52.474;10.768;2022-08-20T02:11:30;19.00;;;13.45;;
19985;SDS011;10154;52.474;10.768;2022-08-20T02:13:58;18.00;;;12.85;;
19985;SDS011;10154;52.474;10.768;2022-08-20T02:16:29;22.27;;;14.38;;
19985;SDS011;10154;52.474;10.768;2022-08-20T02:19:01;21.97;;;13.30;;
19985;SDS011;10154;52.474;10.768;2022-08-20T02:21:34;20.17;;;13.90;;
19985;SDS011;10154;52.474;10.768;2022-08-20T02:24:04;18.33;;;12.83;;
19985;SDS011;10154;52.474;10.768;2022-08-20T02:26:30;18.77;;;12.87;;
19985;SDS011;10154;52.474;10.768;2022-08-20T02:28:56;16.05;;;11.88;;
19985;SDS011;10154;52.474;10.768;2022-08-20T02:31:23;17.63;;;12.47;;
19985;SDS011;10154;52.474;10.768;2022-08-20T02:33:50;16.40;;;11.57;;
19985;SDS011;10154;52.474;10.768;2022-08-20T02:36:17;14.90;;;11.63;;
19985;SDS011;10154;52.474;10.768;2022-08-20T02:38:44;18.38;;;12.27;;
19985;SDS011;10154;52.474;10.768;2022-08-20T02:41:11;20.40;;;12.83;;
19985;SDS011;10154;52.474;10.768;2022-08-20T02:43:39;19.65;;;13.40;;
19985;SDS011;10154;52.474;10.768;2022-08-20T02:46:05;20.00;;;12.63;;
19985;SDS011;10154;52.474;10.768;2022-08-20T02:48:32;18.15;;;13.35;;
19985;SDS011;10154;52.474;10.768;2022-08-20T02:51:00;21.03;;;13.77;;
19985;SDS011;10154;52.474;10.768;2022-08-20T02:53:31;17.90;;;12.48;;
19985;SDS011;10154;52.474;10.768;2022-08-20T02:56:00;16.55;;;11.93;;
19985;SDS011;10154;52.474;10.768;2022-08-20T02:58:27;19.58;;;11.80;;
19985;SDS011;10154;52.474;10.768;2022-08-20T03:00:53;17.65;;;12.32;;
19985;SDS011;10154;52.474;10.768;2022-08-20T03:03:22;20.30;;;12.17;;
19985;SDS011;10154;52.474;10.768;2022-08-20T03:05:49;17.13;;;11.85;;
19985;SDS011;10154;52.474;10.768;2022-08-20T03:08:19;19.38;;;12.20;;
19985;SDS011;10154;52.474;10.768;2022-08-20T03:10:47;20.67;;;12.80;;
19985;SDS011;10154;52.474;10.768;2022-08-20T03:13:14;19.60;;;12.67;;
19985;SDS011;10154;52.474;10.768;2022-08-20T03:15:45;17.67;;;12.80;;
19985;SDS011;10154;52.474;10.768;2022-08-20T03:18:22;17.80;;;13.00;;
19985;SDS011;10154;52.474;10.768;2022-08-20T03:20:51;21.43;;;13.77;;
19985;SDS011;10154;52.474;10.768;2022-08-20T03:23:17;18.85;;;14.20;;
19985;SDS011;10154;52.474;10.768;2022-08-20T03:25:45;19.02;;;13.25;;
19985;SDS011;10154;52.474;10.768;2022-08-20T03:28:13;17.98;;;12.70;;
19985;SDS011;10154;52.474;10.768;2022-08-20T03:30:40;16.33;;;12.57;;
19985;SDS011;10154;52.474;10.768;2022-08-20T03:33:07;17.93;;;12.53;;
19985;SDS011;10154;52.474;10.768;2022-08-20T03:35:34;21.90;;;13.43;;
19985;SDS011;10154;52.474;10.768;2022-08-20T03:38:04;17.00;;;11.68;;
19985;SDS011;10154;52.474;10.768;2022-08-20T03:40:35;16.73;;;11.97;;
19985;SDS011;10154;52.474;10.768;2022-08-20T03:43:02;19.30;;;13.30;;
19985;SDS011;10154;52.474;10.768;2022-08-20T03:45:32;18.70;;;12.20;;
19985;SDS011;10154;52.474;10.768;2022-08-20T03:48:00;16.47;;;12.30;;
19985;SDS011;10154;52.474;10.768;2022-08-20T03:50:29;17.02;;;12.30;;
19985;SDS011;10154;52.474;10.768;2022-08-20T03:52:56;17.10;;;12.27;;
19985;SDS011;10154;52.474;10.768;2022-08-20T03:55:24;19.50;;;13.77;;
19985;SDS011;10154;52.474;10.768;2022-08-20T03:57:54;20.87;;;13.13;;
19985;SDS011;10154;52.474;10.768;2022-08-20T04:00:28;18.35;;;12.82;;
19985;SDS011;10154;52.474;10.768;2022-08-20T04:02:59;18.63;;;13.93;;
19985;SDS011;10154;52.474;10.768;2022-08-20T04:05:26;22.67;;;14.17;;
19985;SDS011;10154;52.474;10.768;2022-08-20T04:07:54;18.23;;;13.50;;
19985;SDS011;10154;52.474;10.768;2022-08-20T04:10:23;20.10;;;12.43;;
19985;SDS011;10154;52.474;10.768;2022-08-20T04:12:49;17.07;;;12.30;;
19985;SDS011;10154;52.474;10.768;2022-08-20T04:15:16;17.90;;;12.70;;
19985;SDS011;10154;52.474;10.768;2022-08-20T04:17:46;17.43;;;12.03;;
19985;SDS011;10154;52.474;10.768;2022-08-20T04:20:15;16.30;;;12.10;;
19985;SDS011;10154;52.474;10.768;2022-08-20T04:22:47;17.60;;;12.57;;
19985;SDS011;10154;52.474;10.768;2022-08-20T04:25:18;18.27;;;11.93;;
19985;SDS011;10154;52.474;10.768;2022-08-20T04:27:45;18.37;;;12.70;;
19985;SDS011;10154;52.474;10.768;2022-08-20T04:30:15;18.50;;;12.13;;
19985;SDS011;10154;52.474;10.768;2022-08-20T04:32:44;19.67;;;12.90;;
19985;SDS011;10154;52.474;10.768;2022-08-20T04:35:12;16.83;;;11.57;;
19985;SDS011;10154;52.474;10.768;2022-08-20T04:37:41;18.73;;;12.17;;
19985;SDS011;10154;52.474;10.768;2022-08-20T04:40:13;20.10;;;12.50;;
19985;SDS011;10154;52.474;10.768;2022-08-20T04:43:02;18.20;;;13.20;;
19985;SDS011;10154;52.474;10.768;2022-08-20T04:45:30;21.17;;;13.37;;
19985;SDS011;10154;52.474;10.768;2022-08-20T04:47:59;18.83;;;13.00;;
19985;SDS011;10154;52.474;10.768;2022-08-20T04:50:29;20.03;;;13.47;;
19985;SDS011;10154;52.474;10.768;2022-08-20T04:53:01;18.33;;;12.93;;
19985;SDS011;10154;52.474;10.768;2022-08-20T04:55:34;24.43;;;14.07;;
19985;SDS011;10154;52.474;10.768;2022-08-20T04:58:07;17.87;;;13.37;;
19985;SDS011;10154;52.474;10.768;2022-08-20T05:00:37;21.63;;;14.30;;
19985;SDS011;10154;52.474;10.768;2022-08-20T05:03:04;19.90;;;14.20;;
19985;SDS011;10154;52.474;10.768;2022-08-20T05:05:31;22.70;;;15.67;;
19985;SDS011;10154;52.474;10.768;2022-08-20T05:08:00;21.50;;;14.67;;
19985;SDS011;10154;52.474;10.768;2022-08-20T05:10:28;23.00;;;15.20;;
19985;SDS011;10154;52.474;10.768;2022-08-20T05:12:54;21.67;;;15.43;;
19985;SDS011;10154;52.474;10.768;2022-08-20T05:15:21;23.77;;;15.63;;
19985;SDS011;10154;52.474;10.768;2022-08-20T05:17:53;22.83;;;15.60;;
19985;SDS011;10154;52.474;10.768;2022-08-20T05:20:29;21.77;;;15.23;;
19985;SDS011;10154;52.474;10.768;2022-08-20T05:22:57;21.03;;;15.83;;
19985;SDS011;10154;52.474;10.768;2022-08-20T05:25:24;21.90;;;15.50;;
19985;SDS011;10154;52.474;10.768;2022-08-20T05:27:56;24.90;;;15.77;;
19985;SDS011;10154;52.474;10.768;2022-08-20T05:30:30;24.70;;;16.43;;
19985;SDS011;10154;52.474;10.768;2022-08-20T05:32:58;25.20;;;15.33;;
19985;SDS011;10154;52.474;10.768;2022-08-20T05:35:26;23.33;;;15.30;;
19985;SDS011;10154;52.474;10.768;2022-08-20T05:37:53;22.03;;;15.00;;
19985;SDS011;10154;52.474;10.768;2022-08-20T05:40:19;21.73;;;14.20;;
19985;SDS011;10154;52.474;10.768;2022-08-20T05:42:46;20.33;;;14.63;;
19985;SDS011;10154;52.474;10.768;2022-08-20T05:45:13;21.43;;;13.83;;
19985;SDS011;10154;52.474;10.768;2022-08-20T05:47:41;22.27;;;14.43;;
19985;SDS011;10154;52.474;10.768;2022-08-20T05:50:09;19.63;;;13.60;;
19985;SDS011;10154;52.474;10.768;2022-08-20T05:52:37;23.50;;;13.87;;
19985;SDS011;10154;52.474;10.768;2022-08-20T05:55:05;23.75;;;13.93;;
19985;SDS011;10154;52.474;10.768;2022-08-20T05:57:34;20.75;;;13.95;;
19985;SDS011;10154;52.474;10.768;2022-08-20T06:00:00;20.27;;;13.13;;
19985;SDS011;10154;52.474;10.768;2022-08-20T06:02:30;19.37;;;14.07;;
19985;SDS011;10154;52.474;10.768;2022-08-20T06:05:15;22.07;;;14.17;;
19985;SDS011;10154;52.474;10.768;2022-08-20T06:07:43;22.17;;;13.68;;
19985;SDS011;10154;52.474;10.768;2022-08-20T06:10:09;23.67;;;14.73;;
19985;SDS011;10154;52.474;10.768;2022-08-20T06:12:36;16.95;;;12.90;;
19985;SDS011;10154;52.474;10.768;2022-08-20T06:15:03;19.00;;;12.20;;
19985;SDS011;10154;52.474;10.768;2022-08-20T06:17:31;19.52;;;12.23;;
19985;SDS011;10154;52.474;10.768;2022-08-20T06:19:58;15.52;;;10.23;;
19985;SDS011;10154;52.474;10.768;2022-08-20T06:22:30;12.13;;;7.75;;
19985;SDS011;10154;52.474;10.768;2022-08-20T06:24:56;17.30;;;10.32;;
19985;SDS011;10154;52.474;10.768;2022-08-20T06:27:24;14.02;;;9.23;;
19985;SDS011;10154;52.474;10.768;2022-08-20T06:29:50;11.68;;;8.77;;
19985;SDS011;10154;52.474;10.768;2022-08-20T06:32:18;12.80;;;9.02;;
19985;SDS011;10154;52.474;10.768;2022-08-20T06:34:51;11.93;;;8.77;;
19985;SDS011;10154;52.474;10.768;2022-08-20T06:37:24;11.10;;;8.18;;
19985;SDS011;10154;52.474;10.768;2022-08-20T06:39:52;10.90;;;7.47;;
19985;SDS011;10154;52.474;10.768;2022-08-20T06:42:21;11.52;;;7.50;;
19985;SDS011;10154;52.474;10.768;2022-08-20T06:44:47;7.97;;;6.93;;
19985;SDS011;10154;52.474;10.768;2022-08-20T06:47:17;10.38;;;7.00;;
19985;SDS011;10154;52.474;10.768;2022-08-20T06:49:46;8.98;;;6.38;;
19985;SDS011;10154;52.474;10.768;2022-08-20T06:52:17;10.15;;;6.85;;
19985;SDS011;10154;52.474;10.768;2022-08-20T06:54:44;8.88;;;6.10;;
19985;SDS011;10154;52.474;10.768;2022-08-20T06:57:11;9.68;;;7.30;;
19985;SDS011;10154;52.474;10.768;2022-08-20T06:59:37;10.10;;;6.97;;
19985;SDS011;10154;52.474;10.768;2022-08-20T07:02:03;9.68;;;5.97;;
19985;SDS011;10154;52.474;10.768;2022-08-20T07:04:29;8.75;;;6.50;;
19985;SDS011;10154;52.474;10.768;2022-08-20T07:06:56;10.90;;;7.05;;
19985;SDS011;10154;52.474;10.768;2022-08-20T07:09:22;10.20;;;6.65;;
19985;SDS011;10154;52.474;10.768;2022-08-20T07:11:50;10.32;;;6.78;;
19985;SDS011;10154;52.474;10.768;2022-08-20T07:14:16;9.82;;;7.03;;
19985;SDS011;10154;52.474;10.768;2022-08-20T07:16:44;9.38;;;6.45;;
19985;SDS011;10154;52.474;10.768;2022-08-20T07:19:11;8.68;;;6.60;;
19985;SDS011;10154;52.474;10.768;2022-08-20T07:21:38;10.40;;;7.63;;
19985;SDS011;10154;52.474;10.768;2022-08-20T07:24:04;8.25;;;6.38;;
19985;SDS011;10154;52.474;10.768;2022-08-20T07:26:31;11.95;;;7.85;;
19985;SDS011;10154;52.474;10.768;2022-08-20T07:28:58;11.32;;;7.95;;
19985;SDS011;10154;52.474;10.768;2022-08-20T07:31:24;7.20;;;5.97;;
19985;SDS011;10154;52.474;10.768;2022-08-20T07:34:12;9.90;;;6.93;;
19985;SDS011;10154;52.474;10.768;2022-08-20T07:36:38;9.27;;;6.90;;
19985;SDS011;10154;52.474;10.768;2022-08-20T07:39:04;11.80;;;8.50;;
19985;SDS011;10154;52.474;10.768;2022-08-20T07:41:30;9.38;;;6.63;;
19985;SDS011;10154;52.474;10.768;2022-08-20T07:43:57;10.20;;;7.13;;
19985;SDS011;10154;52.474;10.768;2022-08-20T07:46:25;11.00;;;7.10;;
19985;SDS011;10154;52.474;10.768;2022-08-20T07:48:53;7.85;;;5.85;;
19985;SDS011;10154;52.474;10.768;2022-08-20T07:51:20;9.73;;;6.60;;
19985;SDS011;10154;52.474;10.768;2022-08-20T07:53:46;11.68;;;6.97;;
19985;SDS011;10154;52.474;10.768;2022-08-20T07:56:21;7.57;;;5.10;;
19985;SDS011;10154;52.474;10.768;2022-08-20T07:58:57;8.82;;;6.50;;
19985;SDS011;10154;52.474;10.768;2022-08-20T08:01:26;11.07;;;7.00;;
19985;SDS011;10154;52.474;10.768;2022-08-20T08:03:56;7.65;;;5.63;;
19985;SDS011;10154;52.474;10.768;2022-08-20T08:06:23;8.77;;;6.30;;
19985;SDS011;10154;52.474;10.768;2022-08-20T08:08:51;7.97;;;6.07;;
19985;SDS011;10154;52.474;10.768;2022-08-20T08:11:18;8.40;;;6.15;;
19985;SDS011;10154;52.474;10.768;2022-08-20T08:13:44;9.10;;;7.03;;
19985;SDS011;10154;52.474;10.768;2022-08-20T08:16:12;7.30;;;5.40;;
19985;SDS011;10154;52.474;10.768;2022-08-20T08:18:42;10.07;;;6.60;;
19985;SDS011;10154;52.474;10.768;2022-08-20T08:21:14;9.38;;;6.70;;
19985;SDS011;10154;52.474;10.768;2022-08-20T08:23:42;11.13;;;7.70;;
19985;SDS011;10154;52.474;10.768;2022-08-20T08:26:09;10.38;;;7.15;;
19985;SDS011;10154;52.474;10.768;2022-08-20T08:28:40;7.82;;;5.80;;
19985;SDS011;10154;52.474;10.768;2022-08-20T08:31:10;10.38;;;7.20;;
19985;SDS011;10154;52.474;10.768;2022-08-20T08:33:37;11.35;;;7.25;;
19985;SDS011;10154;52.474;10.768;2022-08-20T08:36:14;5.78;;;4.95;;
19985;SDS011;10154;52.474;10.768;2022-08-20T08:38:41;8.82;;;6.40;;
19985;SDS011;10154;52.474;10.768;2022-08-20T08:41:20;10.77;;;6.68;;
19985;SDS011;10154;52.474;10.768;2022-08-20T08:44:05;7.60;;;5.88;;
19985;SDS011;10154;52.474;10.768;2022-08-20T08:46:45;8.10;;;5.75;;
19985;SDS011;10154;52.474;10.768;2022-08-20T08:49:19;8.15;;;6.40;;
19985;SDS011;10154;52.474;10.768;2022-08-20T08:51:57;10.60;;;7.43;;
19985;SDS011;10154;52.474;10.768;2022-08-20T08:54:49;8.52;;;6.15;;
19985;SDS011;10154;52.474;10.768;2022-08-20T08:57:19;9.32;;;6.75;;
19985;SDS011;10154;52.474;10.768;2022-08-20T08:59:49;8.27;;;5.35;;
19985;SDS011;10154;52.474;10.768;2022-08-20T09:02:23;6.53;;;5.13;;
19985;SDS011;10154;52.474;10.768;2022-08-20T09:04:53;8.65;;;5.43;;
19985;SDS011;10154;52.474;10.768;2022-08-20T09:07:22;5.95;;;4.57;;
19985;SDS011;10154;52.474;10.768;2022-08-20T09:09:51;7.20;;;5.38;;
19985;SDS011;10154;52.474;10.768;2022-08-20T09:12:20;7.75;;;6.18;;
19985;SDS011;10154;52.474;10.768;2022-08-20T09:14:51;10.48;;;7.03;;
19985;SDS011;10154;52.474;10.768;2022-08-20T09:17:19;11.80;;;7.82;;
19985;SDS011;10154;52.474;10.768;2022-08-20T09:19:49;8.95;;;6.20;;
19985;SDS011;10154;52.474;10.768;2022-08-20T09:22:17;10.25;;;7.47;;
19985;SDS011;10154;52.474;10.768;2022-08-20T09:24:46;14.25;;;7.88;;
19985;SDS011;10154;52.474;10.768;2022-08-20T09:27:13;8.57;;;6.10;;
19985;SDS011;10154;52.474;10.768;2022-08-20T09:29:39;14.98;;;8.05;;
19985;SDS011;10154;52.474;10.768;2022-08-20T09:32:09;10.02;;;6.72;;
19985;SDS011;10154;52.474;10.768;2022-08-20T09:34:44;8.98;;;6.32;;
19985;SDS011;10154;52.474;10.768;2022-08-20T09:37:16;7.80;;;5.00;;
19985;SDS011;10154;52.474;10.768;2022-08-20T09:39:42;6.05;;;4.63;;
19985;SDS011;10154;52.474;10.768;2022-08-20T09:42:10;9.73;;;6.47;;
19985;SDS011;10154;52.474;10.768;2022-08-20T09:44:58;10.77;;;6.85;;
19985;SDS011;10154;52.474;10.768;2022-08-20T09:47:25;12.80;;;6.80;;
19985;SDS011;10154;52.474;10.768;2022-08-20T09:49:52;6.05;;;4.72;;
19985;SDS011;10154;52.474;10.768;2022-08-20T09:54:51;9.05;;;5.30;;
19985;SDS011;10154;52.474;10.768;2022-08-20T09:57:25;12.73;;;5.20;;
19985;SDS011;10154;52.474;10.768;2022-08-20T09:59:54;8.85;;;5.00;;
19985;SDS011;10154;52.474;10.768;2022-08-20T10:02:27;8.57;;;5.35;;
19985;SDS011;10154;52.474;10.768;2022-08-20T10:04:53;6.78;;;4.85;;
19985;SDS011;10154;52.474;10.768;2022-08-20T10:07:20;7.15;;;4.65;;
19985;SDS011;10154;52.474;10.768;2022-08-20T10:09:46;5.82;;;5.00;;
19985;SDS011;10154;52.474;10.768;2022-08-20T10:12:12;8.80;;;6.07;;
19985;SDS011;10154;52.474;10.768;2022-08-20T10:14:38;6.78;;;4.38;;
19985;SDS011;10154;52.474;10.768;2022-08-20T10:17:05;11.38;;;6.07;;
19985;SDS011;10154;52.474;10.768;2022-08-20T10:19:31;7.50;;;4.85;;
19985;SDS011;10154;52.474;10.768;2022-08-20T10:21:57;5.45;;;4.15;;
19985;SDS011;10154;52.474;10.768;2022-08-20T10:24:24;8.00;;;5.68;;
19985;SDS011;10154;52.474;10.768;2022-08-20T10:26:55;8.18;;;5.18;;
19985;SDS011;10154;52.474;10.768;2022-08-20T10:29:29;6.72;;;5.03;;
19985;SDS011;10154;52.474;10.768;2022-08-20T10:31:56;6.78;;;4.82;;
19985;SDS011;10154;52.474;10.768;2022-08-20T10:34:31;7.93;;;4.55;;
19985;SDS011;10154;52.474;10.768;2022-08-20T10:36:57;11.13;;;5.10;;
19985;SDS011;10154;52.474;10.768;2022-08-20T10:39:23;6.30;;;3.80;;
19985;SDS011;10154;52.474;10.768;2022-08-20T10:41:52;6.25;;;4.05;;
19985;SDS011;10154;52.474;10.768;2022-08-20T10:44:23;8.23;;;4.60;;
19985;SDS011;10154;52.474;10.768;2022-08-20T10:46:50;6.45;;;4.43;;
19985;SDS011;10154;52.474;10.768;2022-08-20T10:49:16;13.95;;;5.00;;
19985;SDS011;10154;52.474;10.768;2022-08-20T10:51:42;6.95;;;4.18;;
19985;SDS011;10154;52.474;10.768;2022-08-20T10:54:09;6.25;;;4.13;;
19985;SDS011;10154;52.474;10.768;2022-08-20T10:56:35;6.47;;;4.43;;
19985;SDS011;10154;52.474;10.768;2022-08-20T10:59:01;6.32;;;3.45;;
19985;SDS011;10154;52.474;10.768;2022-08-20T11:01:27;8.18;;;4.03;;
19985;SDS011;10154;52.474;10.768;2022-08-20T11:03:53;5.10;;;3.75;;
19985;SDS011;10154;52.474;10.768;2022-08-20T11:06:19;6.68;;;4.72;;
19985;SDS011;10154;52.474;10.768;2022-08-20T11:08:46;4.40;;;3.55;;
19985;SDS011;10154;52.474;10.768;2022-08-20T11:11:12;6.10;;;3.60;;
19985;SDS011;10154;52.474;10.768;2022-08-20T11:13:38;5.43;;;3.50;;
19985;SDS011;10154;52.474;10.768;2022-08-20T11:16:07;4.85;;;3.50;;
19985;SDS011;10154;52.474;10.768;2022-08-20T11:18:33;7.75;;;4.10;;
19985;SDS011;10154;52.474;10.768;2022-08-20T11:20:59;6.40;;;4.55;;
19985;SDS011;10154;52.474;10.768;2022-08-20T11:23:26;7.57;;;4.30;;
19985;SDS011;10154;52.474;10.768;2022-08-20T11:25:52;7.35;;;4.88;;
19985;SDS011;10154;52.474;10.768;2022-08-20T11:28:20;5.65;;;3.92;;
19985;SDS011;10154;52.474;10.768;2022-08-20T11:30:46;4.28;;;3.35;;
19985;SDS011;10154;52.474;10.768;2022-08-20T11:33:14;4.18;;;3.58;;
19985;SDS011;10154;52.474;10.768;2022-08-20T11:35:40;5.25;;;3.53;;
19985;SDS011;10154;52.474;10.768;2022-08-20T11:38:06;3.60;;;2.63;;
19985;SDS011;10154;52.474;10.768;2022-08-20T11:40:32;5.30;;;3.85;;
19985;SDS011;10154;52.474;10.768;2022-08-20T11:42:59;6.45;;;3.63;;
19985;SDS011;10154;52.474;10.768;2022-08-20T11:45:25;4.55;;;3.08;;
19985;SDS011;10154;52.474;10.768;2022-08-20T11:47:54;6.25;;;3.80;;
19985;SDS011;10154;52.474;10.768;2022-08-20T11:50:20;8.80;;;4.50;;
19985;SDS011;10154;52.474;10.768;2022-08-20T11:52:46;6.13;;;3.92;;
19985;SDS011;10154;52.474;10.768;2022-08-20T11:55:13;8.50;;;4.32;;
19985;SDS011;10154;52.474;10.768;2022-08-20T11:57:42;5.88;;;4.18;;
19985;SDS011;10154;52.474;10.768;2022-08-20T12:00:14;6.75;;;4.75;;
19985;SDS011;10154;52.474;10.768;2022-08-20T12:02:51;6.25;;;4.43;;
19985;SDS011;10154;52.474;10.768;2022-08-20T12:05:17;5.53;;;4.28;;
19985;SDS011;10154;52.474;10.768;2022-08-20T12:07:44;6.60;;;4.07;;
19985;SDS011;10154;52.474;10.768;2022-08-20T12:10:10;4.78;;;4.10;;
19985;SDS011;10154;52.474;10.768;2022-08-20T12:12:37;5.10;;;3.75;;
19985;SDS011;10154;52.474;10.768;2022-08-20T12:15:04;10.18;;;5.68;;
19985;SDS011;10154;52.474;10.768;2022-08-20T12:17:38;7.63;;;5.15;;
19985;SDS011;10154;52.474;10.768;2022-08-20T12:20:10;8.57;;;5.90;;
19985;SDS011;10154;52.474;10.768;2022-08-20T12:22:42;10.05;;;6.35;;
19985;SDS011;10154;52.474;10.768;2022-08-20T12:25:10;6.22;;;4.70;;
19985;SDS011;10154;52.474;10.768;2022-08-20T12:27:48;7.38;;;5.47;;
19985;SDS011;10154;52.474;10.768;2022-08-20T12:30:16;8.40;;;5.40;;
19985;SDS011;10154;52.474;10.768;2022-08-20T12:32:45;7.28;;;4.93;;
19985;SDS011;10154;52.474;10.768;2022-08-20T12:35:12;5.50;;;3.92;;
19985;SDS011;10154;52.474;10.768;2022-08-20T12:37:41;5.90;;;5.03;;
19985;SDS011;10154;52.474;10.768;2022-08-20T12:40:09;5.90;;;4.13;;
19985;SDS011;10154;52.474;10.768;2022-08-20T12:42:46;5.00;;;3.75;;
19985;SDS011;10154;52.474;10.768;2022-08-20T12:45:18;10.65;;;5.25;;
19985;SDS011;10154;52.474;10.768;2022-08-20T12:47:45;4.50;;;3.55;;
19985;SDS011;10154;52.474;10.768;2022-08-20T12:50:15;6.15;;;3.53;;
19985;SDS011;10154;52.474;10.768;2022-08-20T12:52:47;6.03;;;3.50;;
19985;SDS011;10154;52.474;10.768;2022-08-20T12:55:15;2.53;;;1.90;;
19985;SDS011;10154;52.474;10.768;2022-08-20T12:57:44;1.80;;;1.40;;
19985;SDS011;10154;52.474;10.768;2022-08-20T13:02:47;1.90;;;1.33;;
19985;SDS011;10154;52.474;10.768;2022-08-20T13:05:14;1.30;;;1.20;;
19985;SDS011;10154;52.474;10.768;2022-08-20T13:07:43;1.30;;;1.20;;
19985;SDS011;10154;52.474;10.768;2022-08-20T13:10:12;1.33;;;0.90;;
19985;SDS011;10154;52.474;10.768;2022-08-20T13:12:48;1.40;;;1.30;;
19985;SDS011;10154;52.474;10.768;2022-08-20T13:15:20;3.55;;;1.00;;
19985;SDS011;10154;52.474;10.768;2022-08-20T13:17:51;4.15;;;1.05;;
19985;SDS011;10154;52.474;10.768;2022-08-20T13:20:20;1.45;;;0.82;;
19985;SDS011;10154;52.474;10.768;2022-08-20T13:22:50;3.53;;;1.00;;
19985;SDS011;10154;52.474;10.768;2022-08-20T13:25:17;1.50;;;0.85;;
19985;SDS011;10154;52.474;10.768;2022-08-20T13:27:44;1.52;;;0.95;;
19985;SDS011;10154;52.474;10.768;2022-08-20T13:30:12;0.80;;;0.80;;
19985;SDS011;10154;52.474;10.768;2022-08-20T13:32:42;1.40;;;1.02;;
19985;SDS011;10154;52.474;10.768;2022-08-20T13:35:12;0.93;;;0.80;;
19985;SDS011;10154;52.474;10.768;2022-08-20T13:37:39;0.85;;;0.80;;
19985;SDS011;10154;52.474;10.768;2022-08-20T13:40:06;1.10;;;0.70;;
19985;SDS011;10154;52.474;10.768;2022-08-20T13:42:34;0.88;;;0.70;;
19985;SDS011;10154;52.474;10.768;2022-08-20T13:45:00;1.85;;;0.85;;
19985;SDS011;10154;52.474;10.768;2022-08-20T13:47:29;1.17;;;0.63;;
19985;SDS011;10154;52.474;10.768;2022-08-20T13:50:00;0.85;;;0.70;;
19985;SDS011;10154;52.474;10.768;2022-08-20T13:52:29;0.90;;;0.70;;
19985;SDS011;10154;52.474;10.768;2022-08-20T13:54:56;1.27;;;0.70;;
19985;SDS011;10154;52.474;10.768;2022-08-20T13:57:23;0.60;;;0.60;;
19985;SDS011;10154;52.474;10.768;2022-08-20T13:59:51;1.05;;;0.70;;
19985;SDS011;10154;52.474;10.768;2022-08-20T14:02:22;1.02;;;0.60;;
19985;SDS011;10154;52.474;10.768;2022-08-20T14:04:50;0.88;;;0.70;;
19985;SDS011;10154;52.474;10.768;2022-08-20T14:07:21;0.88;;;0.80;;
19985;SDS011;10154;52.474;10.768;2022-08-20T14:09:53;1.02;;;0.73;;
19985;SDS011;10154;52.474;10.768;2022-08-20T14:12:23;1.00;;;0.70;;
19985;SDS011;10154;52.474;10.768;2022-08-20T14:14:53;0.70;;;0.63;;
19985;SDS011;10154;52.474;10.768;2022-08-20T14:17:29;1.38;;;0.80;;
19985;SDS011;10154;52.474;10.768;2022-08-20T14:19:59;0.82;;;0.65;;
19985;SDS011;10154;52.474;10.768;2022-08-20T14:22:32;2.72;;;0.73;;
19985;SDS011;10154;52.474;10.768;2022-08-20T14:25:01;0.60;;;0.50;;
19985;SDS011;10154;52.474;10.768;2022-08-20T14:27:29;0.47;;;0.43;;
19985;SDS011;10154;52.474;10.768;2022-08-20T14:29:58;1.42;;;0.60;;
19985;SDS011;10154;52.474;10.768;2022-08-20T14:32:25;0.50;;;0.50;;
19985;SDS011;10154;52.474;10.768;2022-08-20T14:34:52;0.60;;;0.60;;
19985;SDS011;10154;52.474;10.768;2022-08-20T14:37:24;0.68;;;0.50;;
19985;SDS011;10154;52.474;10.768;2022-08-20T14:39:57;0.85;;;0.40;;
19985;SDS011;10154;52.474;10.768;2022-08-20T14:42:25;1.02;;;0.70;;
19985;SDS011;10154;52.474;10.768;2022-08-20T14:44:54;1.30;;;0.60;;
19985;SDS011;10154;52.474;10.768;2022-08-20T14:47:30;0.90;;;0.60;;
19985;SDS011;10154;52.474;10.768;2022-08-20T14:50:04;1.10;;;0.73;;
19985;SDS011;10154;52.474;10.768;2022-08-20T14:52:34;0.70;;;0.70;;